Time;durP1;ratioP1;P1;durP2;ratioP2;P2;SDS_P1;SDS_P2;PMS_P1;PMS_P2;Temp;Humidity;BMP_temperature;BMP_pressure;BME280_temperature;BME280_humidity;BME280_pressure;Samples;Min_cycle;Max_cycle;Signal;HPM_P1;HPM_P2
2023/05/27 00:02:10;;;;;;;18.58;4.88;;;;;;;9.71;100.00;102483.59;5009090;28;20069;-73
2023/05/27 00:04:36;;;;;;;28.42;5.65;;;;;;;9.65;100.00;102483.09;5009471;28;20423;-74
2023/05/27 00:07:03;;;;;;;22.83;6.22;;;;;;;9.62;100.00;102489.38;5005313;28;20045;-73
2023/05/27 00:09:30;;;;;;;24.65;6.00;;;;;;;9.59;100.00;102486.56;5011968;28;20050;-74
2023/05/27 00:11:56;;;;;;;20.58;5.18;;;;;;;9.53;100.00;102482.47;5005111;28;20050;-72
2023/05/27 00:14:24;;;;;;;22.83;5.78;;;;;;;9.47;100.00;102475.59;5000953;28;20137;-74
2023/05/27 00:16:51;;;;;;;23.33;5.63;;;;;;;9.42;100.00;102479.47;5005751;28;20061;-72
2023/05/27 00:19:17;;;;;;;22.45;5.65;;;;;;;9.37;100.00;102477.00;5003091;28;20057;-73
2023/05/27 00:21:44;;;;;;;23.27;5.85;;;;;;;9.34;100.00;102476.94;5005216;28;20149;-72
2023/05/27 00:24:11;;;;;;;17.20;5.03;;;;;;;9.30;100.00;102476.88;5010448;28;20163;-72
2023/05/27 00:26:39;;;;;;;20.02;5.38;;;;;;;9.23;100.00;102476.75;5028687;28;20060;-74
2023/05/27 00:29:05;;;;;;;20.92;6.13;;;;;;;9.20;100.00;102479.44;5011980;28;20050;-74
2023/05/27 00:31:32;;;;;;;24.88;5.60;;;;;;;9.16;100.00;102482.16;5010624;28;20054;-76
2023/05/27 00:33:58;;;;;;;22.00;5.40;;;;;;;9.16;100.00;102476.59;5035368;28;20499;-72
2023/05/27 00:36:25;;;;;;;22.27;5.55;;;;;;;9.17;100.00;102482.94;5008068;28;20099;-73
2023/05/27 00:38:51;;;;;;;23.15;5.32;;;;;;;9.10;100.00;102474.47;5010807;28;20114;-71
2023/05/27 00:41:19;;;;;;;26.92;5.65;;;;;;;9.15;100.00;102474.19;5014712;28;20056;-73
2023/05/27 00:43:46;;;;;;;27.23;6.43;;;;;;;9.10;100.00;102475.28;5020961;28;20054;-73
2023/05/27 00:46:12;;;;;;;20.52;5.15;;;;;;;9.10;100.00;102483.59;5016126;28;20103;-72
2023/05/27 00:48:39;;;;;;;19.92;5.55;;;;;;;9.02;100.00;102481.84;5006594;28;20124;-72
2023/05/27 00:51:06;;;;;;;23.88;5.57;;;;;;;9.02;100.00;102483.81;5007162;28;20137;-73
2023/05/27 00:53:41;;;;;;;21.40;6.13;;;;;;;8.98;100.00;102480.97;5005374;28;20420;-71
2023/05/27 00:56:12;;;;;;;22.85;5.10;;;;;;;8.94;100.00;102476.50;5005421;28;20054;-75
2023/05/27 00:58:39;;;;;;;26.65;5.88;;;;;;;8.92;100.00;102478.84;5009497;28;20074;-71
2023/05/27 01:01:07;;;;;;;25.98;6.10;;;;;;;8.86;100.00;102477.53;5014385;28;20132;-74
2023/05/27 01:03:34;;;;;;;21.48;5.68;;;;;;;8.82;100.00;102476.66;5016082;28;20061;-74
2023/05/27 01:06:36;;;;;;;27.38;6.07;;;;;;;8.79;100.00;102469.88;5011499;28;20132;-74
2023/05/27 01:09:14;;;;;;;23.42;5.38;;;;;;;8.75;100.00;102476.50;4992970;28;20141;-72
2023/05/27 01:11:50;;;;;;;19.52;5.45;;;;;;;8.74;100.00;102481.22;5000545;28;20050;-72
2023/05/27 01:14:19;;;;;;;20.83;6.55;;;;;;;8.68;100.00;102479.91;5008622;28;20137;-75
2023/05/27 01:16:46;;;;;;;21.90;5.82;;;;;;;8.56;100.00;102474.47;5008403;28;20050;-75
2023/05/27 01:19:17;;;;;;;25.90;6.57;;;;;;;8.55;100.00;102477.59;5012938;28;20092;-72
2023/05/27 01:21:48;;;;;;;22.08;6.25;;;;;;;8.48;100.00;102474.66;5014710;28;20119;-72
2023/05/27 01:24:14;;;;;;;27.35;6.32;;;;;;;8.43;100.00;102475.75;5012212;28;20053;-72
2023/05/27 01:26:42;;;;;;;26.02;6.60;;;;;;;8.41;100.00;102466.19;5007475;28;20180;-68
2023/05/27 01:29:08;;;;;;;29.90;6.20;;;;;;;8.37;100.00;102468.09;5020487;28;20487;-76
2023/05/27 01:31:48;;;;;;;22.55;5.68;;;;;;;8.36;100.00;102467.25;5007338;28;20061;-72
2023/05/27 01:34:21;;;;;;;22.23;6.60;;;;;;;8.36;100.00;102478.34;5008625;28;20061;-71
2023/05/27 01:36:55;;;;;;;28.65;6.78;;;;;;;8.35;100.00;102473.16;5008466;28;20088;-71
2023/05/27 01:39:22;;;;;;;21.75;6.50;;;;;;;8.28;100.00;102464.69;5009898;28;20054;-71
2023/05/27 01:41:51;;;;;;;24.23;6.03;;;;;;;8.26;100.00;102459.50;5008910;28;20108;-71
2023/05/27 01:44:18;;;;;;;18.02;6.82;;;;;;;8.22;100.00;102460.56;5008548;28;20099;-71
2023/05/27 01:46:45;;;;;;;23.67;6.65;;;;;;;8.22;100.00;102463.34;5004939;28;20516;-75
2023/05/27 01:49:11;;;;;;;20.90;5.82;;;;;;;8.20;100.00;102457.38;5020794;28;20050;-73
2023/05/27 01:51:38;;;;;;;19.83;5.82;;;;;;;8.13;100.00;102458.00;5012774;28;20085;-72
2023/05/27 01:54:05;;;;;;;19.30;6.20;;;;;;;8.07;100.00;102455.88;5013544;28;20115;-72
2023/05/27 01:56:31;;;;;;;20.17;5.93;;;;;;;8.07;100.00;102466.94;5008298;28;20133;-74
2023/05/27 01:58:58;;;;;;;22.27;6.82;;;;;;;8.04;100.00;102462.94;5006714;28;20181;-73
2023/05/27 02:01:25;;;;;;;23.77;6.63;;;;;;;8.02;100.00;102461.66;5002880;28;20077;-72
2023/05/27 02:03:52;;;;;;;24.25;6.45;;;;;;;8.04;100.00;102459.34;5001546;28;20050;-71
2023/05/27 02:06:18;;;;;;;21.75;6.22;;;;;;;8.03;100.00;102468.84;5024121;28;20060;-72
2023/05/27 02:08:45;;;;;;;26.55;6.85;;;;;;;7.96;100.00;102457.56;5021534;28;20081;-72
2023/05/27 02:11:12;;;;;;;26.95;6.63;;;;;;;7.95;100.00;102461.50;5009091;28;20049;-69
2023/05/27 02:13:38;;;;;;;23.52;7.72;;;;;;;7.93;100.00;102456.31;5012486;28;20053;-73
2023/05/27 02:16:05;;;;;;;22.88;6.15;;;;;;;7.91;100.00;102453.13;5028609;28;20080;-72
2023/05/27 02:18:32;;;;;;;30.27;9.23;;;;;;;7.91;100.00;102455.88;5020878;28;20107;-72
2023/05/27 02:21:05;;;;;;;22.83;6.70;;;;;;;7.85;100.00;102449.00;5027882;28;20110;-73
2023/05/27 02:23:32;;;;;;;25.08;7.55;;;;;;;7.76;100.00;102445.59;5025694;28;20231;-72
2023/05/27 02:26:00;;;;;;;22.33;6.63;;;;;;;7.76;100.00;102442.81;5012147;28;20045;-72
2023/05/27 02:28:27;;;;;;;25.83;6.50;;;;;;;7.73;100.00;102445.53;5010505;28;20053;-73
2023/05/27 02:30:53;;;;;;;29.25;7.15;;;;;;;7.71;100.00;102454.19;5023657;28;20511;-74
2023/05/27 02:33:20;;;;;;;20.30;7.07;;;;;;;7.70;100.00;102454.53;5008956;28;20099;-73
2023/05/27 02:35:46;;;;;;;24.48;7.22;;;;;;;7.73;100.00;102449.06;5023216;28;20053;-73
2023/05/27 02:38:13;;;;;;;27.90;7.45;;;;;;;7.68;100.00;102446.59;5028014;28;20129;-72
2023/05/27 02:40:40;;;;;;;22.13;6.90;;;;;;;7.66;100.00;102454.44;5024911;28;20053;-70
2023/05/27 02:43:08;;;;;;;28.92;7.70;;;;;;;7.63;100.00;102448.81;5010351;28;20076;-73
2023/05/27 02:45:34;;;;;;;19.65;6.35;;;;;;;7.64;100.00;102447.66;5012605;28;20053;-73
2023/05/27 02:48:01;;;;;;;26.08;7.35;;;;;;;7.63;100.00;102446.03;5014584;28;20869;-72
2023/05/27 02:50:28;;;;;;;32.97;9.45;;;;;;;7.62;100.00;102445.22;5027615;28;20056;-73
2023/05/27 02:52:55;;;;;;;24.92;7.25;;;;;;;7.60;100.00;102444.81;5027652;28;20128;-72
2023/05/27 02:55:21;;;;;;;27.63;6.60;;;;;;;7.60;100.00;102442.03;5026567;28;20081;-74
2023/05/27 02:57:48;;;;;;;28.77;7.55;;;;;;;7.56;100.00;102443.88;5025553;28;20053;-73
2023/05/27 03:00:15;;;;;;;24.50;7.53;;;;;;;7.56;100.00;102445.84;5012230;28;20068;-73
2023/05/27 03:02:41;;;;;;;26.05;7.18;;;;;;;7.54;100.00;102444.22;5018366;28;20057;-73
2023/05/27 03:05:08;;;;;;;26.08;6.90;;;;;;;7.56;100.00;102443.09;5013634;28;20049;-73
2023/05/27 03:07:35;;;;;;;28.08;8.35;;;;;;;7.50;100.00;102443.34;5007746;28;20081;-73
2023/05/27 03:10:02;;;;;;;29.52;7.70;;;;;;;7.53;100.00;102448.16;5027795;28;20073;-73
2023/05/27 03:12:28;;;;;;;24.15;6.60;;;;;;;7.48;100.00;102434.59;5026567;28;20087;-73
2023/05/27 03:14:55;;;;;;;26.70;6.43;;;;;;;7.46;100.00;102436.09;5021334;28;20141;-72
2023/05/27 03:17:21;;;;;;;28.52;10.25;;;;;;;7.43;100.00;102437.63;5002109;28;20050;-73
2023/05/27 03:19:48;;;;;;;27.52;7.28;;;;;;;7.40;100.00;102435.56;5041003;28;20045;-73
2023/05/27 03:22:15;;;;;;;23.45;7.43;;;;;;;7.38;100.00;102429.59;5027325;28;20819;-73
2023/05/27 03:24:41;;;;;;;28.85;6.85;;;;;;;7.40;100.00;102427.25;5026322;28;20057;-73
2023/05/27 03:27:08;;;;;;;24.35;8.27;;;;;;;7.40;100.00;102427.25;5026720;28;20758;-71
2023/05/27 03:29:35;;;;;;;24.00;7.25;;;;;;;7.37;100.00;102424.41;5018638;28;20504;-73
2023/05/27 03:32:01;;;;;;;26.38;7.55;;;;;;;7.31;100.00;102423.88;5012076;28;20508;-75
2023/05/27 03:34:28;;;;;;;28.08;8.73;;;;;;;7.30;100.00;102427.78;5014818;28;20081;-73
2023/05/27 03:36:55;;;;;;;25.27;7.70;;;;;;;7.26;100.00;102428.84;5027222;28;20195;-73
2023/05/27 03:39:21;;;;;;;25.42;7.32;;;;;;;7.25;100.00;102430.00;5025700;28;20072;-75
2023/05/27 03:41:48;;;;;;;27.00;6.97;;;;;;;7.24;100.00;102434.75;5022429;28;20099;-72
2023/05/27 03:44:15;;;;;;;24.02;6.90;;;;;;;7.20;100.00;102438.56;5016395;28;20089;-73
2023/05/27 03:46:41;;;;;;;24.23;7.85;;;;;;;7.22;100.00;102437.03;5025188;28;20156;-73
2023/05/27 03:49:08;;;;;;;25.17;7.13;;;;;;;7.23;100.00;102438.66;5005944;28;20180;-72
2023/05/27 03:51:35;;;;;;;27.45;7.20;;;;;;;7.27;100.00;102438.75;5015431;28;20058;-72
2023/05/27 03:54:02;;;;;;;35.58;8.13;;;;;;;7.27;100.00;102439.53;5011909;28;20168;-73
2023/05/27 03:56:28;;;;;;;32.00;9.20;;;;;;;7.26;100.00;102426.09;5027178;28;20049;-72
2023/05/27 03:58:56;;;;;;;37.72;9.60;;;;;;;7.24;100.00;102423.69;5029792;28;20132;-77
2023/05/27 04:01:22;;;;;;;31.00;7.60;;;;;;;7.24;100.00;102418.16;5025859;28;20054;-69
2023/05/27 04:03:49;;;;;;;32.83;9.98;;;;;;;7.22;100.00;102423.22;5031049;28;20092;-72
2023/05/27 04:06:16;;;;;;;28.10;7.78;;;;;;;7.22;100.00;102422.41;5006222;28;20404;-73
2023/05/27 04:08:43;;;;;;;31.70;9.73;;;;;;;7.22;100.00;102428.75;5012285;28;20054;-72
2023/05/27 04:11:12;;;;;;;28.90;8.45;;;;;;;7.22;100.00;102439.81;5030887;28;20069;-74
2023/05/27 04:13:39;;;;;;;25.23;7.20;;;;;;;7.21;100.00;102421.63;5028572;28;20081;-72
2023/05/27 04:16:07;;;;;;;33.17;7.68;;;;;;;7.25;100.00;102430.81;5016311;28;20794;-73
2023/05/27 04:18:37;;;;;;;26.05;7.72;;;;;;;7.23;100.00;102432.34;5030762;28;20060;-73
2023/05/27 04:21:04;;;;;;;20.27;8.00;;;;;;;7.21;100.00;102432.69;5013363;28;20696;-72
2023/05/27 04:23:30;;;;;;;26.30;8.00;;;;;;;7.21;100.00;102434.63;5015284;28;20427;-71
2023/05/27 04:25:57;;;;;;;25.00;7.38;;;;;;;7.29;100.00;102433.66;5009128;28;20148;-72
2023/05/27 04:28:23;;;;;;;23.33;7.57;;;;;;;7.27;100.00;102427.69;5010846;28;20069;-73
2023/05/27 04:30:51;;;;;;;27.25;7.90;;;;;;;7.28;100.00;102429.28;5029805;28;20046;-73
2023/05/27 04:33:17;;;;;;;23.27;7.53;;;;;;;7.28;100.00;102441.19;5025825;28;20076;-72
2023/05/27 04:35:44;;;;;;;31.80;8.35;;;;;;;7.32;100.00;102436.53;5030399;28;20504;-69
2023/05/27 04:38:15;;;;;;;26.17;8.43;;;;;;;7.38;100.00;102435.13;5013611;28;20042;-72
2023/05/27 04:40:45;;;;;;;20.67;7.13;;;;;;;7.42;100.00;102436.03;5025673;28;20470;-71
2023/05/27 04:43:14;;;;;;;24.05;7.40;;;;;;;7.44;100.00;102432.91;5022145;28;20049;-71
2023/05/27 04:45:43;;;;;;;30.80;8.80;;;;;;;7.44;100.00;102430.91;5021599;28;20054;-72
2023/05/27 04:48:10;;;;;;;30.27;7.88;;;;;;;7.52;100.00;102425.59;5030573;28;20047;-72
2023/05/27 04:50:37;;;;;;;23.73;8.35;;;;;;;7.50;100.00;102426.72;5029937;28;20132;-72
2023/05/27 04:53:03;;;;;;;25.23;7.63;;;;;;;7.55;100.00;102422.91;5026868;28;20128;-72
2023/05/27 04:55:33;;;;;;;22.02;7.60;;;;;;;7.56;100.00;102423.72;5013423;28;20140;-73
2023/05/27 04:58:03;;;;;;;22.88;7.82;;;;;;;7.59;100.00;102421.03;5017990;28;20063;-73
2023/05/27 05:00:49;;;;;;;24.30;8.30;;;;;;;7.65;100.00;102419.59;5026903;28;20057;-71
2023/05/27 05:03:20;;;;;;;26.77;8.27;;;;;;;7.72;100.00;102410.66;5014237;28;20132;-71
2023/05/27 05:05:51;;;;;;;25.02;8.20;;;;;;;7.74;100.00;102419.44;5021720;28;20049;-72
2023/05/27 05:08:19;;;;;;;23.50;7.00;;;;;;;7.82;100.00;102422.00;5029238;28;20061;-74
2023/05/27 05:10:47;;;;;;;22.15;6.95;;;;;;;7.88;100.00;102419.78;5024161;28;20567;-72
2023/05/27 05:13:14;;;;;;;31.15;7.55;;;;;;;7.92;100.00;102415.94;5011265;28;20468;-73
2023/05/27 05:15:43;;;;;;;26.05;8.05;;;;;;;7.96;100.00;102413.22;5008438;28;20720;-72
2023/05/27 05:18:12;;;;;;;27.45;7.43;;;;;;;8.04;100.00;102412.25;5021891;28;20050;-72
2023/05/27 05:20:40;;;;;;;24.58;8.02;;;;;;;8.02;100.00;102406.25;5014742;28;20069;-72
2023/05/27 05:23:07;;;;;;;27.00;7.50;;;;;;;8.14;100.00;102408.94;5010289;28;20053;-72
2023/05/27 05:25:37;;;;;;;27.58;8.18;;;;;;;8.16;100.00;102409.38;5021620;28;20069;-73
2023/05/27 05:28:05;;;;;;;25.00;7.47;;;;;;;8.21;100.00;102406.34;5022420;28;20345;-73
2023/05/27 05:30:31;;;;;;;25.48;7.90;;;;;;;8.24;100.00;102402.84;5006736;28;20064;-74
2023/05/27 05:32:59;;;;;;;28.38;8.73;;;;;;;8.29;100.00;102400.59;5017303;28;20049;-73
2023/05/27 05:35:25;;;;;;;27.60;8.00;;;;;;;8.31;100.00;102394.69;5008428;28;20066;-73
2023/05/27 05:37:52;;;;;;;26.50;7.88;;;;;;;8.37;100.00;102396.03;5008053;28;20081;-70
2023/05/27 05:40:21;;;;;;;30.23;7.82;;;;;;;8.42;100.00;102392.94;5008787;28;20077;-72
2023/05/27 05:42:47;;;;;;;26.95;9.60;;;;;;;8.44;100.00;102385.88;5021701;28;20158;-72
2023/05/27 05:45:14;;;;;;;27.35;8.38;;;;;;;8.53;100.00;102397.56;5020608;28;20467;-73
2023/05/27 05:47:41;;;;;;;30.30;7.45;;;;;;;8.53;100.00;102408.66;5004951;28;20049;-72
2023/05/27 05:50:08;;;;;;;33.42;8.07;;;;;;;8.59;100.00;102400.84;5023513;28;20043;-71
2023/05/27 05:52:34;;;;;;;26.33;7.30;;;;;;;8.68;100.00;102409.78;5012025;28;20050;-73
2023/05/27 05:55:01;;;;;;;24.50;7.38;;;;;;;8.76;100.00;102408.75;5006317;28;20825;-73
2023/05/27 05:57:31;;;;;;;25.00;7.07;;;;;;;8.80;100.00;102402.13;5009234;28;20049;-70
2023/05/27 06:00:01;;;;;;;23.30;8.40;;;;;;;8.86;100.00;102409.00;5020281;28;20053;-73
2023/05/27 06:02:27;;;;;;;34.67;7.97;;;;;;;8.96;100.00;102413.13;5020129;28;20119;-73
2023/05/27 06:04:54;;;;;;;24.83;7.72;;;;;;;8.98;100.00;102414.38;5004465;28;20119;-74
2023/05/27 06:07:21;;;;;;;23.80;8.52;;;;;;;9.09;100.00;102420.16;5011651;28;20818;-73
2023/05/27 06:09:48;;;;;;;28.17;8.20;;;;;;;9.15;100.00;102427.00;5011600;28;20084;-72
2023/05/27 06:12:14;;;;;;;28.20;7.30;;;;;;;9.23;100.00;102426.78;5007499;28;20069;-73
2023/05/27 06:14:41;;;;;;;23.52;7.80;;;;;;;9.33;100.00;102425.38;5006998;28;20123;-73
2023/05/27 06:17:07;;;;;;;27.33;7.75;;;;;;;9.36;100.00;102422.66;5010444;28;20041;-72
2023/05/27 06:19:34;;;;;;;23.75;6.47;;;;;;;9.44;100.00;102415.25;5013237;28;20140;-71
2023/05/27 06:22:00;;;;;;;23.15;7.57;;;;;;;9.51;100.00;102426.50;5016127;28;20100;-73
2023/05/27 06:24:27;;;;;;;25.33;7.78;;;;;;;9.60;100.00;102413.19;5025349;28;20115;-73
2023/05/27 06:26:53;;;;;;;24.17;9.15;;;;;;;9.62;100.00;102413.59;5020490;28;20050;-74
2023/05/27 06:29:20;;;;;;;22.92;8.38;;;;;;;9.73;100.00;102415.38;5015898;28;20045;-75
2023/05/27 06:31:48;;;;;;;27.30;7.85;;;;;;;9.77;100.00;102407.13;5014730;28;20588;-73
2023/05/27 06:34:17;;;;;;;29.02;8.63;;;;;;;9.79;100.00;102408.34;5027945;28;20049;-71
2023/05/27 06:36:44;;;;;;;30.10;7.95;;;;;;;9.94;100.00;102404.63;5019216;28;20061;-75
2023/05/27 06:39:11;;;;;;;26.40;7.28;;;;;;;10.03;100.00;102409.97;5028068;28;20042;-72
2023/05/27 06:41:37;;;;;;;27.25;8.18;;;;;;;10.06;100.00;102406.41;5025534;28;20057;-76
2023/05/27 06:44:04;;;;;;;25.90;7.65;;;;;;;10.07;100.00;102392.13;5010330;28;20050;-71
2023/05/27 06:46:30;;;;;;;25.17;7.97;;;;;;;10.15;100.00;102401.41;5016662;28;20053;-74
2023/05/27 06:48:57;;;;;;;28.67;7.80;;;;;;;10.22;100.00;102395.16;5025449;28;20485;-73
2023/05/27 06:51:24;;;;;;;18.70;6.68;;;;;;;10.33;100.00;102390.56;5018398;28;20057;-74
2023/05/27 06:53:50;;;;;;;31.00;8.85;;;;;;;10.44;100.00;102383.97;5017635;28;20050;-73
2023/05/27 06:56:17;;;;;;;25.05;8.38;;;;;;;10.51;100.00;102386.03;5008229;28;20080;-72
2023/05/27 06:58:45;;;;;;;30.35;8.20;;;;;;;10.58;100.00;102381.38;5022082;28;20156;-72
2023/05/27 07:01:12;;;;;;;28.08;8.00;;;;;;;10.70;100.00;102383.09;5006825;28;20049;-71
2023/05/27 07:03:38;;;;;;;21.85;8.50;;;;;;;10.75;100.00;102378.00;5025971;28;20057;-72
2023/05/27 07:06:05;;;;;;;26.25;8.15;;;;;;;10.84;100.00;102383.28;5025779;28;20060;-71
2023/05/27 07:08:31;;;;;;;21.67;7.15;;;;;;;10.85;100.00;102382.91;5014881;28;20054;-71
2023/05/27 07:10:58;;;;;;;29.05;8.60;;;;;;;10.98;100.00;102378.69;5010735;28;20087;-72
2023/05/27 07:13:25;;;;;;;29.73;9.60;;;;;;;11.05;100.00;102370.41;5010855;28;20523;-72
2023/05/27 07:15:51;;;;;;;30.23;8.20;;;;;;;11.13;100.00;102369.28;5017971;28;20049;-72
2023/05/27 07:18:18;;;;;;;27.75;7.72;;;;;;;11.18;100.00;102363.34;5019853;28;20047;-72
2023/05/27 07:20:44;;;;;;;25.02;7.57;;;;;;;11.22;100.00;102358.69;5026987;28;20173;-70
2023/05/27 07:23:11;;;;;;;21.35;7.80;;;;;;;11.33;100.00;102361.56;5008736;28;20050;-70
2023/05/27 07:25:38;;;;;;;23.13;8.15;;;;;;;11.42;100.00;102354.50;5006337;28;20053;-71
2023/05/27 07:28:04;;;;;;;12.35;4.32;;;;;;;11.48;100.00;102358.50;5010308;28;20122;-70
2023/05/27 07:30:31;;;;;;;24.05;7.63;;;;;;;11.57;100.00;102350.66;5012736;28;20879;-71
2023/05/27 07:32:57;;;;;;;21.98;8.23;;;;;;;11.61;100.00;102350.66;5018829;28;20129;-71
2023/05/27 07:35:24;;;;;;;26.70;8.88;;;;;;;11.73;100.00;102342.81;5027690;28;20136;-71
2023/05/27 07:37:50;;;;;;;29.30;8.35;;;;;;;11.85;100.00;102344.50;5028027;28;20052;-70
2023/05/27 07:40:17;;;;;;;32.25;6.80;;;;;;;12.00;100.00;102346.19;5014996;28;20558;-70
2023/05/27 07:42:43;;;;;;;22.42;7.95;;;;;;;12.10;100.00;102343.47;5008490;28;20134;-74
2023/05/27 07:45:10;;;;;;;25.23;7.38;;;;;;;12.22;100.00;102333.97;5002332;28;20054;-71
2023/05/27 07:47:37;;;;;;;22.25;7.15;;;;;;;12.34;100.00;102339.22;5025130;28;20085;-72
2023/05/27 07:50:04;;;;;;;23.30;8.68;;;;;;;12.38;100.00;102335.28;5021738;28;20046;-70
2023/05/27 07:52:31;;;;;;;23.58;7.75;;;;;;;12.50;100.00;102320.97;5023827;28;20050;-70
2023/05/27 07:54:57;;;;;;;29.58;8.07;;;;;;;12.62;100.00;102335.78;5016092;28;20046;-70
2023/05/27 07:57:24;;;;;;;25.98;8.40;;;;;;;12.71;100.00;102337.00;5007669;28;20081;-70
2023/05/27 07:59:51;;;;;;;32.50;8.27;;;;;;;12.81;100.00;102329.88;5018264;28;20050;-70
2023/05/27 08:02:18;;;;;;;24.77;8.60;;;;;;;12.83;100.00;102333.84;5022692;28;20511;-71
2023/05/27 08:04:44;;;;;;;22.83;8.15;;;;;;;12.92;100.00;102336.25;5011041;28;20061;-71
2023/05/27 08:07:11;;;;;;;22.73;8.18;;;;;;;13.01;100.00;102328.31;5015745;28;20050;-71
2023/05/27 08:09:38;;;;;;;22.58;7.28;;;;;;;13.10;100.00;102323.94;5011384;28;20444;-73
2023/05/27 08:12:06;;;;;;;28.40;7.75;;;;;;;13.22;100.00;102329.16;5006885;28;20594;-72
2023/05/27 08:14:34;;;;;;;26.85;8.20;;;;;;;13.32;100.00;102321.97;5022889;28;20053;-68
2023/05/27 08:17:00;;;;;;;25.55;8.38;;;;;;;13.40;100.00;102313.19;5014538;28;20049;-70
2023/05/27 08:19:28;;;;;;;18.73;6.80;;;;;;;13.54;100.00;102318.81;5006632;28;20053;-71
2023/05/27 08:21:55;;;;;;;22.85;7.25;;;;;;;13.66;100.00;102307.25;5011420;28;20050;-71
2023/05/27 08:24:23;;;;;;;29.80;8.05;;;;;;;13.82;100.00;102306.81;5015044;28;20050;-71
2023/05/27 08:26:50;;;;;;;29.15;8.52;;;;;;;13.90;100.00;102305.59;5025853;28;20081;-71
2023/05/27 08:29:16;;;;;;;26.55;7.45;;;;;;;14.00;100.00;102307.56;5026624;28;20550;-71
2023/05/27 08:31:43;;;;;;;30.25;8.95;;;;;;;14.16;100.00;102297.56;5021172;28;20046;-71
2023/05/27 08:34:10;;;;;;;20.33;7.60;;;;;;;14.26;100.00;102288.34;5026169;28;20049;-71
2023/05/27 08:36:37;;;;;;;25.25;7.63;;;;;;;14.29;100.00;102283.94;5026396;28;20064;-71
2023/05/27 08:39:04;;;;;;;23.65;7.82;;;;;;;14.32;100.00;102288.72;5012622;28;20516;-71
2023/05/27 08:41:31;;;;;;;22.80;9.10;;;;;;;14.38;100.00;102281.50;5023938;28;20111;-70
2023/05/27 08:43:59;;;;;;;30.63;7.85;;;;;;;14.48;100.00;102284.25;5020446;28;20053;-70
2023/05/27 08:46:48;;;;;;;24.95;8.65;;;;;;;14.59;100.00;102279.41;5027228;28;20057;-74
2023/05/27 08:49:16;;;;;;;32.13;9.23;;;;;;;14.68;100.00;102281.75;4999113;28;20062;-71
2023/05/27 08:51:45;;;;;;;27.48;9.23;;;;;;;14.77;100.00;102276.50;5008734;28;20141;-71
2023/05/27 08:54:11;;;;;;;26.00;7.57;;;;;;;14.88;100.00;102275.25;5014615;28;20064;-72
2023/05/27 08:56:39;;;;;;;22.52;8.65;;;;;;;15.05;100.00;102272.75;5001673;28;20133;-75
2023/05/27 08:59:07;;;;;;;23.67;8.02;;;;;;;15.12;100.00;102256.66;5009294;28;20100;-72
2023/05/27 09:01:35;;;;;;;26.45;8.18;;;;;;;15.30;100.00;102262.94;5007310;28;20154;-71
2023/05/27 09:04:02;;;;;;;23.02;8.02;;;;;;;15.44;100.00;102264.84;5009401;28;20073;-72
2023/05/27 09:06:28;;;;;;;25.42;8.25;;;;;;;15.56;100.00;102253.91;5018751;28;20080;-72
2023/05/27 09:08:55;;;;;;;24.10;7.35;;;;;;;15.61;100.00;102250.66;5009240;28;20210;-72
2023/05/27 09:11:23;;;;;;;22.65;7.88;;;;;;;15.73;100.00;102250.13;5010568;28;20057;-73
2023/05/27 09:13:53;;;;;;;24.80;6.78;;;;;;;15.75;100.00;102249.72;5027046;28;20049;-71
2023/05/27 09:16:21;;;;;;;24.98;6.63;;;;;;;15.84;100.00;102242.41;5019827;28;20049;-72
2023/05/27 09:18:48;;;;;;;21.70;6.38;;;;;;;15.97;100.00;102237.81;5008328;28;20061;-72
2023/05/27 09:21:15;;;;;;;27.42;8.18;;;;;;;15.99;100.00;102241.03;5009035;28;20067;-71
2023/05/27 09:23:42;;;;;;;27.85;7.28;;;;;;;16.03;100.00;102238.19;5018754;28;20854;-71
2023/05/27 09:26:10;;;;;;;21.83;6.20;;;;;;;16.19;100.00;102227.97;5005386;28;20082;-71
2023/05/27 09:28:37;;;;;;;28.85;7.70;;;;;;;16.32;100.00;102237.44;5006575;28;20156;-72
2023/05/27 09:31:08;;;;;;;26.23;7.88;;;;;;;16.34;100.00;102231.41;5010270;28;20100;-71
2023/05/27 09:33:39;;;;;;;19.73;7.40;;;;;;;16.43;100.00;102234.47;5017834;28;20056;-71
2023/05/27 09:36:08;;;;;;;19.13;7.18;;;;;;;16.51;100.00;102233.97;5021325;28;20081;-73
2023/05/27 09:38:36;;;;;;;16.30;5.65;;;;;;;16.59;100.00;102231.84;5016592;28;20420;-72
2023/05/27 09:41:03;;;;;;;23.27;7.15;;;;;;;16.68;100.00;102229.31;5006960;28;20566;-72
2023/05/27 09:43:30;;;;;;;25.52;8.30;;;;;;;16.69;100.00;102225.28;5016206;28;20161;-69
2023/05/27 09:46:08;;;;;;;21.90;6.15;;;;;;;16.77;100.00;102227.56;5023753;28;20115;-70
2023/05/27 09:48:38;;;;;;;24.48;6.65;;;;;;;16.94;100.00;102214.47;5013656;28;20131;-71
2023/05/27 09:51:05;;;;;;;25.25;7.30;;;;;;;17.07;100.00;102213.44;5005220;28;20069;-72
2023/05/27 09:53:34;;;;;;;20.00;7.30;;;;;;;17.23;100.00;102212.81;5017890;28;20057;-74
2023/05/27 09:56:01;;;;;;;28.88;6.93;;;;;;;17.27;100.00;102213.53;5017161;28;20092;-72
2023/05/27 09:58:28;;;;;;;25.90;6.72;;;;;;;17.36;100.00;102208.94;5022319;28;20115;-72
2023/05/27 10:00:56;;;;;;;21.42;5.65;;;;;;;17.51;100.00;102205.91;5020743;28;20123;-74
2023/05/27 10:03:28;;;;;;;22.48;7.63;;;;;;;17.72;100.00;102200.63;5007822;28;20050;-72
2023/05/27 10:05:55;;;;;;;21.83;6.68;;;;;;;17.87;100.00;102206.78;5011311;28;20076;-73
2023/05/27 10:08:22;;;;;;;24.25;7.38;;;;;;;17.94;100.00;102203.84;5016227;28;20141;-73
2023/05/27 10:10:53;;;;;;;27.10;6.55;;;;;;;18.02;100.00;102194.06;5025717;28;20053;-73
2023/05/27 10:13:20;;;;;;;25.25;6.13;;;;;;;18.07;100.00;102190.72;5000662;28;20050;-74
2023/05/27 10:15:50;;;;;;;23.70;7.15;;;;;;;18.09;100.00;102185.47;5011591;28;20083;-75
2023/05/27 10:18:26;;;;;;;18.85;5.85;;;;;;;18.06;100.00;102180.72;5013503;28;20564;-72
2023/05/27 10:20:55;;;;;;;19.70;6.15;;;;;;;18.23;100.00;102185.94;4999719;28;20053;-73
2023/05/27 10:23:27;;;;;;;22.27;5.93;;;;;;;18.42;100.00;102179.47;5001982;28;20100;-72
2023/05/27 10:25:56;;;;;;;19.90;5.82;;;;;;;18.55;100.00;102185.22;5008506;28;20056;-75
2023/05/27 10:28:43;;;;;;;21.65;5.88;;;;;;;18.77;100.00;102177.91;5016267;28;20056;-71
2023/05/27 10:31:17;;;;;;;12.32;3.63;;;;;;;18.91;100.00;102171.91;5004971;28;20122;-70
2023/05/27 10:33:46;;;;;;;18.83;5.85;;;;;;;19.02;100.00;102172.44;5007986;28;20054;-71
2023/05/27 10:36:15;;;;;;;20.17;5.97;;;;;;;19.15;100.00;102171.28;5005336;28;20046;-70
2023/05/27 10:38:53;;;;;;;19.42;5.20;;;;;;;19.14;100.00;102168.91;5008502;28;20119;-70
2023/05/27 10:41:22;;;;;;;19.42;5.03;;;;;;;19.18;100.00;102163.97;5009376;28;20046;-71
2023/05/27 10:43:57;;;;;;;20.48;5.88;;;;;;;19.21;100.00;102157.44;5008515;28;20136;-72
2023/05/27 10:46:24;;;;;;;18.42;4.95;;;;;;;19.29;100.00;102147.56;5005061;28;20475;-74
2023/05/27 10:48:50;;;;;;;17.70;5.55;;;;;;;19.45;100.00;102145.47;5022154;28;20046;-72
2023/05/27 10:51:17;;;;;;;16.58;4.85;;;;;;;19.56;100.00;102145.22;5012136;28;20388;-70
2023/05/27 10:53:43;;;;;;;21.65;5.22;;;;;;;19.69;100.00;102144.00;5005243;28;20156;-71
2023/05/27 10:56:10;;;;;;;23.25;5.47;;;;;;;19.83;100.00;102147.66;5007721;28;20050;-73
2023/05/27 10:58:38;;;;;;;25.85;6.30;;;;;;;19.92;100.00;102142.97;5001849;28;20085;-73
2023/05/27 11:01:13;;;;;;;22.67;5.68;;;;;;;20.05;100.00;102145.81;5014523;28;20099;-73
2023/05/27 11:03:44;;;;;;;;;;;;;;;20.15;98.68;102137.00;5009050;28;20050;-71
2023/05/27 11:06:16;;;;;;;19.30;5.20;;;;;;;20.08;96.73;102140.03;5020394;28;19952;-74
2023/05/27 11:08:43;;;;;;;19.83;5.53;;;;;;;20.19;95.99;102117.94;5017976;28;20054;-72
2023/05/27 11:11:11;;;;;;;22.05;5.90;;;;;;;20.23;92.25;102127.13;5011466;28;20046;-72
2023/05/27 11:13:42;;;;;;;19.30;5.35;;;;;;;20.42;96.46;102117.63;5015198;28;20116;-72
2023/05/27 11:16:13;;;;;;;17.27;4.60;;;;;;;20.70;93.03;102115.91;5009925;28;20067;-73
2023/05/27 11:18:45;;;;;;;18.35;4.78;;;;;;;20.91;94.19;102123.66;5002918;28;20416;-72